sensor_id;sensor_type;location;lat;lon;timestamp;temperature;humidity
10245;DHT22;5167;52.164;10.530;2023-07-20T00:00:26;20.60;5.00
10245;DHT22;5167;52.164;10.530;2023-07-20T00:02:52;20.50;5.00
10245;DHT22;5167;52.164;10.530;2023-07-20T00:05:18;20.50;5.00
10245;DHT22;5167;52.164;10.530;2023-07-20T00:07:44;20.40;5.00
10245;DHT22;5167;52.164;10.530;2023-07-20T00:10:09;20.40;5.00
10245;DHT22;5167;52.164;10.530;2023-07-20T00:12:35;20.40;5.00
10245;DHT22;5167;52.164;10.530;2023-07-20T00:15:01;20.40;5.00
10245;DHT22;5167;52.164;10.530;2023-07-20T00:17:26;20.30;5.00
10245;DHT22;5167;52.164;10.530;2023-07-20T00:19:52;20.30;5.00
10245;DHT22;5167;52.164;10.530;2023-07-20T00:22:17;20.30;5.00
10245;DHT22;5167;52.164;10.530;2023-07-20T00:24:43;20.30;5.00
10245;DHT22;5167;52.164;10.530;2023-07-20T00:27:08;20.30;5.00
10245;DHT22;5167;52.164;10.530;2023-07-20T00:29:34;20.20;5.00
10245;DHT22;5167;52.164;10.530;2023-07-20T00:32:00;20.30;5.00
10245;DHT22;5167;52.164;10.530;2023-07-20T00:34:26;20.30;5.00
10245;DHT22;5167;52.164;10.530;2023-07-20T00:36:51;20.20;5.00
10245;DHT22;5167;52.164;10.530;2023-07-20T00:39:17;20.10;5.00
10245;DHT22;5167;52.164;10.530;2023-07-20T00:41:42;20.10;5.00
10245;DHT22;5167;52.164;10.530;2023-07-20T00:44:08;20.10;5.00
10245;DHT22;5167;52.164;10.530;2023-07-20T00:46:34;20.00;5.00
10245;DHT22;5167;52.164;10.530;2023-07-20T00:48:59;19.90;5.00
10245;DHT22;5167;52.164;10.530;2023-07-20T00:51:26;19.90;5.00
10245;DHT22;5167;52.164;10.530;2023-07-20T00:53:52;19.80;5.00
10245;DHT22;5167;52.164;10.530;2023-07-20T00:56:19;19.80;5.00
10245;DHT22;5167;52.164;10.530;2023-07-20T00:58:45;19.80;5.00
10245;DHT22;5167;52.164;10.530;2023-07-20T01:01:10;19.70;5.00
10245;DHT22;5167;52.164;10.530;2023-07-20T01:03:36;19.70;5.00
10245;DHT22;5167;52.164;10.530;2023-07-20T01:06:36;19.70;5.00
10245;DHT22;5167;52.164;10.530;2023-07-20T01:09:14;19.70;5.00
10245;DHT22;5167;52.164;10.530;2023-07-20T01:11:57;19.60;5.00
10245;DHT22;5167;52.164;10.530;2023-07-20T01:14:25;19.60;5.00
10245;DHT22;5167;52.164;10.530;2023-07-20T01:16:51;19.60;5.00
10245;DHT22;5167;52.164;10.530;2023-07-20T01:19:18;19.60;5.00
10245;DHT22;5167;52.164;10.530;2023-07-20T01:22:09;19.60;5.00
10245;DHT22;5167;52.164;10.530;2023-07-20T01:30:43;19.50;5.70
10245;DHT22;5167;52.164;10.530;2023-07-20T01:33:12;19.50;6.10
10245;DHT22;5167;52.164;10.530;2023-07-20T01:35:39;19.50;5.90
10245;DHT22;5167;52.164;10.530;2023-07-20T01:38:07;19.50;5.00
10245;DHT22;5167;52.164;10.530;2023-07-20T01:40:34;19.50;5.00
10245;DHT22;5167;52.164;10.530;2023-07-20T01:42:59;19.50;5.00
10245;DHT22;5167;52.164;10.530;2023-07-20T01:45:25;19.60;5.60
10245;DHT22;5167;52.164;10.530;2023-07-20T01:47:51;19.40;5.60
10245;DHT22;5167;52.164;10.530;2023-07-20T01:50:16;19.50;5.90
10245;DHT22;5167;52.164;10.530;2023-07-20T01:52:42;19.40;5.80
10245;DHT22;5167;52.164;10.530;2023-07-20T01:55:08;19.50;6.20
10245;DHT22;5167;52.164;10.530;2023-07-20T01:57:33;19.50;6.30
10245;DHT22;5167;52.164;10.530;2023-07-20T01:59:59;19.50;6.40
10245;DHT22;5167;52.164;10.530;2023-07-20T02:02:27;19.40;5.30
10245;DHT22;5167;52.164;10.530;2023-07-20T02:04:53;19.50;5.90
10245;DHT22;5167;52.164;10.530;2023-07-20T02:07:19;19.50;5.30
10245;DHT22;5167;52.164;10.530;2023-07-20T02:09:45;19.50;5.00
10245;DHT22;5167;52.164;10.530;2023-07-20T02:12:10;19.50;6.00
10245;DHT22;5167;52.164;10.530;2023-07-20T02:14:36;19.50;5.60
10245;DHT22;5167;52.164;10.530;2023-07-20T02:17:01;19.40;5.80
10245;DHT22;5167;52.164;10.530;2023-07-20T02:19:27;19.50;6.00
10245;DHT22;5167;52.164;10.530;2023-07-20T02:21:53;19.50;5.90
10245;DHT22;5167;52.164;10.530;2023-07-20T02:24:18;19.40;5.00
10245;DHT22;5167;52.164;10.530;2023-07-20T02:26:44;19.40;7.40
10245;DHT22;5167;52.164;10.530;2023-07-20T02:29:09;19.50;7.20
10245;DHT22;5167;52.164;10.530;2023-07-20T02:31:37;19.40;6.80
10245;DHT22;5167;52.164;10.530;2023-07-20T02:34:07;19.40;6.70
10245;DHT22;5167;52.164;10.530;2023-07-20T02:36:34;19.40;6.30
10245;DHT22;5167;52.164;10.530;2023-07-20T02:38:59;19.40;6.70
10245;DHT22;5167;52.164;10.530;2023-07-20T02:41:25;19.40;7.10
10245;DHT22;5167;52.164;10.530;2023-07-20T02:43:51;19.40;7.10
10245;DHT22;5167;52.164;10.530;2023-07-20T02:46:16;19.40;6.60
10245;DHT22;5167;52.164;10.530;2023-07-20T02:48:42;19.20;7.00
10245;DHT22;5167;52.164;10.530;2023-07-20T02:51:07;19.20;7.40
10245;DHT22;5167;52.164;10.530;2023-07-20T02:53:34;19.30;7.10
10245;DHT22;5167;52.164;10.530;2023-07-20T02:56:00;19.30;6.70
10245;DHT22;5167;52.164;10.530;2023-07-20T02:58:25;19.30;6.30
10245;DHT22;5167;52.164;10.530;2023-07-20T03:00:51;19.20;7.20
10245;DHT22;5167;52.164;10.530;2023-07-20T03:03:16;19.20;6.80
10245;DHT22;5167;52.164;10.530;2023-07-20T03:05:42;19.20;7.20
10245;DHT22;5167;52.164;10.530;2023-07-20T03:08:08;19.20;7.00
10245;DHT22;5167;52.164;10.530;2023-07-20T03:10:38;19.20;7.30
10245;DHT22;5167;52.164;10.530;2023-07-20T03:13:04;19.20;9.00
10245;DHT22;5167;52.164;10.530;2023-07-20T03:15:30;19.20;8.00
10245;DHT22;5167;52.164;10.530;2023-07-20T03:17:56;19.20;8.40
10245;DHT22;5167;52.164;10.530;2023-07-20T03:20:24;19.20;8.80
10245;DHT22;5167;52.164;10.530;2023-07-20T03:22:49;19.10;7.80
10245;DHT22;5167;52.164;10.530;2023-07-20T03:25:15;19.20;7.40
10245;DHT22;5167;52.164;10.530;2023-07-20T03:27:40;19.20;7.10
10245;DHT22;5167;52.164;10.530;2023-07-20T03:30:06;19.10;7.00
10245;DHT22;5167;52.164;10.530;2023-07-20T03:32:32;19.10;8.10
10245;DHT22;5167;52.164;10.530;2023-07-20T03:34:58;19.10;8.40
10245;DHT22;5167;52.164;10.530;2023-07-20T03:37:23;19.10;8.90
10245;DHT22;5167;52.164;10.530;2023-07-20T03:39:49;19.00;8.60
10245;DHT22;5167;52.164;10.530;2023-07-20T03:42:14;19.10;9.20
10245;DHT22;5167;52.164;10.530;2023-07-20T03:44:40;19.00;8.90
10245;DHT22;5167;52.164;10.530;2023-07-20T03:47:05;19.00;9.90
10245;DHT22;5167;52.164;10.530;2023-07-20T03:49:31;19.00;9.20
10245;DHT22;5167;52.164;10.530;2023-07-20T03:51:57;19.00;9.90
10245;DHT22;5167;52.164;10.530;2023-07-20T03:54:22;18.90;10.80
10245;DHT22;5167;52.164;10.530;2023-07-20T03:56:48;18.90;10.70
10245;DHT22;5167;52.164;10.530;2023-07-20T03:59:13;18.90;10.50
10245;DHT22;5167;52.164;10.530;2023-07-20T04:01:39;18.80;11.00
10245;DHT22;5167;52.164;10.530;2023-07-20T04:04:07;18.90;11.10
10245;DHT22;5167;52.164;10.530;2023-07-20T04:06:33;18.90;11.20
10245;DHT22;5167;52.164;10.530;2023-07-20T04:08:59;18.90;10.90
10245;DHT22;5167;52.164;10.530;2023-07-20T04:11:24;18.90;9.40
10245;DHT22;5167;52.164;10.530;2023-07-20T04:13:50;18.90;10.30
10245;DHT22;5167;52.164;10.530;2023-07-20T04:16:15;18.90;9.90
10245;DHT22;5167;52.164;10.530;2023-07-20T04:18:41;18.90;10.00
10245;DHT22;5167;52.164;10.530;2023-07-20T04:21:08;18.90;9.00
10245;DHT22;5167;52.164;10.530;2023-07-20T04:23:34;18.90;9.30
10245;DHT22;5167;52.164;10.530;2023-07-20T04:26:00;18.90;9.30
10245;DHT22;5167;52.164;10.530;2023-07-20T04:28:26;18.90;9.10
10245;DHT22;5167;52.164;10.530;2023-07-20T04:30:52;18.90;9.40
10245;DHT22;5167;52.164;10.530;2023-07-20T04:33:18;18.90;9.80
10245;DHT22;5167;52.164;10.530;2023-07-20T04:35:53;18.80;9.50
10245;DHT22;5167;52.164;10.530;2023-07-20T04:38:19;18.90;9.40
10245;DHT22;5167;52.164;10.530;2023-07-20T04:40:45;18.90;9.50
10245;DHT22;5167;52.164;10.530;2023-07-20T04:43:12;18.90;10.00
10245;DHT22;5167;52.164;10.530;2023-07-20T04:45:37;18.90;9.80
10245;DHT22;5167;52.164;10.530;2023-07-20T04:48:06;18.90;10.10
10245;DHT22;5167;52.164;10.530;2023-07-20T04:50:32;18.90;10.60
10245;DHT22;5167;52.164;10.530;2023-07-20T04:52:57;19.00;10.40
10245;DHT22;5167;52.164;10.530;2023-07-20T04:55:23;19.00;9.80
10245;DHT22;5167;52.164;10.530;2023-07-20T04:57:48;19.00;9.70
10245;DHT22;5167;52.164;10.530;2023-07-20T05:00:14;19.00;10.10
10245;DHT22;5167;52.164;10.530;2023-07-20T05:02:40;19.10;9.30
10245;DHT22;5167;52.164;10.530;2023-07-20T05:05:06;19.20;9.70
10245;DHT22;5167;52.164;10.530;2023-07-20T05:07:32;19.20;10.50
10245;DHT22;5167;52.164;10.530;2023-07-20T05:09:57;19.20;9.50
10245;DHT22;5167;52.164;10.530;2023-07-20T05:12:23;19.30;7.70
10245;DHT22;5167;52.164;10.530;2023-07-20T05:14:48;19.40;8.30
10245;DHT22;5167;52.164;10.530;2023-07-20T05:17:14;19.40;7.00
10245;DHT22;5167;52.164;10.530;2023-07-20T05:19:39;19.40;6.80
10245;DHT22;5167;52.164;10.530;2023-07-20T05:22:05;19.40;6.00
10245;DHT22;5167;52.164;10.530;2023-07-20T05:24:31;19.40;6.60
10245;DHT22;5167;52.164;10.530;2023-07-20T05:26:57;19.40;6.50
10245;DHT22;5167;52.164;10.530;2023-07-20T05:29:23;19.40;6.70
10245;DHT22;5167;52.164;10.530;2023-07-20T05:31:49;19.40;6.50
10245;DHT22;5167;52.164;10.530;2023-07-20T05:34:14;19.40;7.10
10245;DHT22;5167;52.164;10.530;2023-07-20T05:36:40;19.40;8.00
10245;DHT22;5167;52.164;10.530;2023-07-20T05:39:06;19.40;6.50
10245;DHT22;5167;52.164;10.530;2023-07-20T05:41:31;19.40;8.60
10245;DHT22;5167;52.164;10.530;2023-07-20T05:43:57;19.40;7.20
10245;DHT22;5167;52.164;10.530;2023-07-20T05:46:22;19.40;7.10
10245;DHT22;5167;52.164;10.530;2023-07-20T05:48:49;19.40;7.00
10245;DHT22;5167;52.164;10.530;2023-07-20T05:51:15;19.40;7.80
10245;DHT22;5167;52.164;10.530;2023-07-20T05:53:40;19.40;9.30
10245;DHT22;5167;52.164;10.530;2023-07-20T05:56:06;19.40;10.10
10245;DHT22;5167;52.164;10.530;2023-07-20T05:58:35;19.30;11.10
10245;DHT22;5167;52.164;10.530;2023-07-20T06:01:01;19.30;11.50
10245;DHT22;5167;52.164;10.530;2023-07-20T06:03:27;19.30;11.00
10245;DHT22;5167;52.164;10.530;2023-07-20T06:05:59;19.20;10.80
10245;DHT22;5167;52.164;10.530;2023-07-20T06:08:25;19.20;10.70
10245;DHT22;5167;52.164;10.530;2023-07-20T06:10:51;19.10;10.90
10245;DHT22;5167;52.164;10.530;2023-07-20T06:13:19;19.10;12.50
10245;DHT22;5167;52.164;10.530;2023-07-20T06:15:45;19.00;13.20
10245;DHT22;5167;52.164;10.530;2023-07-20T06:18:10;19.10;13.70
10245;DHT22;5167;52.164;10.530;2023-07-20T06:20:36;19.00;13.10
10245;DHT22;5167;52.164;10.530;2023-07-20T06:23:01;19.00;14.50
10245;DHT22;5167;52.164;10.530;2023-07-20T06:25:27;19.00;14.70
10245;DHT22;5167;52.164;10.530;2023-07-20T06:27:52;19.00;15.30
10245;DHT22;5167;52.164;10.530;2023-07-20T06:30:19;19.00;15.50
10245;DHT22;5167;52.164;10.530;2023-07-20T06:32:44;19.00;15.60
10245;DHT22;5167;52.164;10.530;2023-07-20T06:35:10;18.90;15.70
10245;DHT22;5167;52.164;10.530;2023-07-20T06:37:36;19.00;16.60
10245;DHT22;5167;52.164;10.530;2023-07-20T06:40:02;18.90;17.20
10245;DHT22;5167;52.164;10.530;2023-07-20T06:42:29;18.90;16.70
10245;DHT22;5167;52.164;10.530;2023-07-20T06:44:56;19.00;16.70
10245;DHT22;5167;52.164;10.530;2023-07-20T06:47:21;18.90;17.70
10245;DHT22;5167;52.164;10.530;2023-07-20T06:49:47;18.90;17.20
10245;DHT22;5167;52.164;10.530;2023-07-20T06:52:12;18.90;17.70
10245;DHT22;5167;52.164;10.530;2023-07-20T06:54:38;18.90;19.00
10245;DHT22;5167;52.164;10.530;2023-07-20T06:57:05;18.90;20.10
10245;DHT22;5167;52.164;10.530;2023-07-20T06:59:30;19.00;20.50
10245;DHT22;5167;52.164;10.530;2023-07-20T07:01:56;19.00;19.60
10245;DHT22;5167;52.164;10.530;2023-07-20T07:04:22;19.00;19.50
10245;DHT22;5167;52.164;10.530;2023-07-20T07:06:47;19.00;19.00
10245;DHT22;5167;52.164;10.530;2023-07-20T07:09:13;19.00;18.40
10245;DHT22;5167;52.164;10.530;2023-07-20T07:11:39;18.90;17.90
10245;DHT22;5167;52.164;10.530;2023-07-20T07:14:05;18.90;17.40
10245;DHT22;5167;52.164;10.530;2023-07-20T07:16:30;18.80;16.90
10245;DHT22;5167;52.164;10.530;2023-07-20T07:18:56;18.80;18.30
10245;DHT22;5167;52.164;10.530;2023-07-20T07:21:21;18.80;18.10
10245;DHT22;5167;52.164;10.530;2023-07-20T07:23:47;18.80;18.30
10245;DHT22;5167;52.164;10.530;2023-07-20T07:26:13;18.70;18.00
10245;DHT22;5167;52.164;10.530;2023-07-20T07:28:38;18.80;17.50
10245;DHT22;5167;52.164;10.530;2023-07-20T07:31:07;18.60;18.70
10245;DHT22;5167;52.164;10.530;2023-07-20T07:33:33;18.60;20.00
10245;DHT22;5167;52.164;10.530;2023-07-20T07:35:59;18.50;20.20
10245;DHT22;5167;52.164;10.530;2023-07-20T07:38:24;18.60;20.80
10245;DHT22;5167;52.164;10.530;2023-07-20T07:40:50;18.50;21.80
10245;DHT22;5167;52.164;10.530;2023-07-20T07:43:15;18.50;22.50
10245;DHT22;5167;52.164;10.530;2023-07-20T07:45:41;18.60;22.50
10245;DHT22;5167;52.164;10.530;2023-07-20T07:48:07;18.50;23.30
10245;DHT22;5167;52.164;10.530;2023-07-20T07:50:34;18.50;24.20
10245;DHT22;5167;52.164;10.530;2023-07-20T07:53:00;18.50;24.10
10245;DHT22;5167;52.164;10.530;2023-07-20T07:55:25;18.60;24.60
10245;DHT22;5167;52.164;10.530;2023-07-20T07:57:54;18.50;23.60
10245;DHT22;5167;52.164;10.530;2023-07-20T08:00:20;18.50;23.10
10245;DHT22;5167;52.164;10.530;2023-07-20T08:02:46;18.60;23.40
10245;DHT22;5167;52.164;10.530;2023-07-20T08:05:14;18.50;22.90
10245;DHT22;5167;52.164;10.530;2023-07-20T08:07:40;18.60;23.50
10245;DHT22;5167;52.164;10.530;2023-07-20T08:10:06;18.60;24.00
10245;DHT22;5167;52.164;10.530;2023-07-20T08:12:32;18.70;23.70
10245;DHT22;5167;52.164;10.530;2023-07-20T08:14:58;18.70;24.40
10245;DHT22;5167;52.164;10.530;2023-07-20T08:17:23;18.70;25.10
10245;DHT22;5167;52.164;10.530;2023-07-20T08:19:49;18.90;25.50
10245;DHT22;5167;52.164;10.530;2023-07-20T08:22:15;19.00;25.70
10245;DHT22;5167;52.164;10.530;2023-07-20T08:24:42;19.00;27.50
10245;DHT22;5167;52.164;10.530;2023-07-20T08:27:08;19.10;24.90
10245;DHT22;5167;52.164;10.530;2023-07-20T08:29:34;19.20;22.70
10245;DHT22;5167;52.164;10.530;2023-07-20T08:32:00;19.20;22.30
10245;DHT22;5167;52.164;10.530;2023-07-20T08:34:25;19.30;23.20
10245;DHT22;5167;52.164;10.530;2023-07-20T08:36:51;19.40;22.60
10245;DHT22;5167;52.164;10.530;2023-07-20T08:39:16;19.50;21.80
10245;DHT22;5167;52.164;10.530;2023-07-20T08:41:46;19.60;20.60
10245;DHT22;5167;52.164;10.530;2023-07-20T08:44:12;19.60;19.90
10245;DHT22;5167;52.164;10.530;2023-07-20T08:46:38;19.70;19.90
10245;DHT22;5167;52.164;10.530;2023-07-20T08:49:04;19.80;18.90
10245;DHT22;5167;52.164;10.530;2023-07-20T08:51:30;19.90;18.70
10245;DHT22;5167;52.164;10.530;2023-07-20T08:53:58;20.00;16.30
10245;DHT22;5167;52.164;10.530;2023-07-20T08:56:25;20.20;12.50
10245;DHT22;5167;52.164;10.530;2023-07-20T08:58:55;20.30;11.60
10245;DHT22;5167;52.164;10.530;2023-07-20T09:01:22;20.30;11.70
10245;DHT22;5167;52.164;10.530;2023-07-20T09:03:48;20.50;10.90
10245;DHT22;5167;52.164;10.530;2023-07-20T09:06:14;20.60;12.80
10245;DHT22;5167;52.164;10.530;2023-07-20T09:08:40;20.80;8.00
10245;DHT22;5167;52.164;10.530;2023-07-20T09:11:06;21.00;8.00
10245;DHT22;5167;52.164;10.530;2023-07-20T09:13:33;21.20;5.00
10245;DHT22;5167;52.164;10.530;2023-07-20T09:15:59;21.40;5.00
10245;DHT22;5167;52.164;10.530;2023-07-20T09:18:29;21.50;5.00
10245;DHT22;5167;52.164;10.530;2023-07-20T09:21:02;21.60;5.00
10245;DHT22;5167;52.164;10.530;2023-07-20T09:23:38;21.70;5.00
10245;DHT22;5167;52.164;10.530;2023-07-20T09:26:13;21.90;5.00
10245;DHT22;5167;52.164;10.530;2023-07-20T09:28:51;22.00;5.00
10245;DHT22;5167;52.164;10.530;2023-07-20T09:31:18;22.00;5.00
10245;DHT22;5167;52.164;10.530;2023-07-20T09:33:44;22.10;5.00
10245;DHT22;5167;52.164;10.530;2023-07-20T09:36:10;22.10;5.00
10245;DHT22;5167;52.164;10.530;2023-07-20T09:38:42;22.20;5.00
10245;DHT22;5167;52.164;10.530;2023-07-20T09:41:14;22.30;5.00
10245;DHT22;5167;52.164;10.530;2023-07-20T09:43:43;22.50;5.00
10245;DHT22;5167;52.164;10.530;2023-07-20T09:46:10;22.70;5.00
10245;DHT22;5167;52.164;10.530;2023-07-20T09:48:36;22.60;5.00
10245;DHT22;5167;52.164;10.530;2023-07-20T09:51:02;22.60;5.00
10245;DHT22;5167;52.164;10.530;2023-07-20T09:53:28;22.80;5.00
10245;DHT22;5167;52.164;10.530;2023-07-20T09:55:55;22.90;5.00
10245;DHT22;5167;52.164;10.530;2023-07-20T09:58:21;23.00;5.00
10245;DHT22;5167;52.164;10.530;2023-07-20T10:00:50;23.20;5.00
10245;DHT22;5167;52.164;10.530;2023-07-20T10:03:21;23.30;5.00
10245;DHT22;5167;52.164;10.530;2023-07-20T10:06:00;23.50;5.00
10245;DHT22;5167;52.164;10.530;2023-07-20T10:08:29;23.40;5.00
10245;DHT22;5167;52.164;10.530;2023-07-20T10:10:57;23.50;5.00
10245;DHT22;5167;52.164;10.530;2023-07-20T10:13:29;23.50;5.00
10245;DHT22;5167;52.164;10.530;2023-07-20T10:16:01;23.50;5.00
10245;DHT22;5167;52.164;10.530;2023-07-20T10:18:31;23.60;5.00
10245;DHT22;5167;52.164;10.530;2023-07-20T10:21:00;23.70;5.00
10245;DHT22;5167;52.164;10.530;2023-07-20T10:23:29;23.80;5.00
10245;DHT22;5167;52.164;10.530;2023-07-20T10:25:56;23.80;5.00
10245;DHT22;5167;52.164;10.530;2023-07-20T10:28:22;23.80;5.00
10245;DHT22;5167;52.164;10.530;2023-07-20T10:30:49;23.90;5.00
10245;DHT22;5167;52.164;10.530;2023-07-20T10:33:17;23.90;5.00
10245;DHT22;5167;52.164;10.530;2023-07-20T10:35:56;23.90;5.00
10245;DHT22;5167;52.164;10.530;2023-07-20T10:38:39;23.90;5.00
10245;DHT22;5167;52.164;10.530;2023-07-20T10:41:19;24.00;5.00
10245;DHT22;5167;52.164;10.530;2023-07-20T10:43:46;23.90;5.00
10245;DHT22;5167;52.164;10.530;2023-07-20T10:46:12;23.90;5.00
10245;DHT22;5167;52.164;10.530;2023-07-20T10:49:15;24.00;5.00
10245;DHT22;5167;52.164;10.530;2023-07-20T10:54:08;23.90;5.00
10245;DHT22;5167;52.164;10.530;2023-07-20T10:56:34;23.80;5.00
10245;DHT22;5167;52.164;10.530;2023-07-20T10:59:00;23.80;5.00
10245;DHT22;5167;52.164;10.530;2023-07-20T11:01:30;23.80;5.00
10245;DHT22;5167;52.164;10.530;2023-07-20T11:03:59;23.80;5.00
10245;DHT22;5167;52.164;10.530;2023-07-20T11:11:41;23.80;5.00
10245;DHT22;5167;52.164;10.530;2023-07-20T11:14:10;23.80;5.00
10245;DHT22;5167;52.164;10.530;2023-07-20T11:16:45;23.90;5.00
10245;DHT22;5167;52.164;10.530;2023-07-20T11:19:19;23.90;5.00
10245;DHT22;5167;52.164;10.530;2023-07-20T11:21:47;23.80;5.00
10245;DHT22;5167;52.164;10.530;2023-07-20T11:24:15;23.90;5.00
10245;DHT22;5167;52.164;10.530;2023-07-20T11:26:45;23.80;5.00
10245;DHT22;5167;52.164;10.530;2023-07-20T11:29:11;23.70;5.00
10245;DHT22;5167;52.164;10.530;2023-07-20T11:31:38;23.70;5.00
10245;DHT22;5167;52.164;10.530;2023-07-20T11:34:04;23.70;5.00
10245;DHT22;5167;52.164;10.530;2023-07-20T11:36:30;23.80;5.00
10245;DHT22;5167;52.164;10.530;2023-07-20T11:38:56;23.90;5.00
10245;DHT22;5167;52.164;10.530;2023-07-20T11:41:22;24.00;5.00
10245;DHT22;5167;52.164;10.530;2023-07-20T11:43:47;24.10;5.00
10245;DHT22;5167;52.164;10.530;2023-07-20T11:46:13;24.20;5.00
10245;DHT22;5167;52.164;10.530;2023-07-20T11:48:38;24.10;5.00
10245;DHT22;5167;52.164;10.530;2023-07-20T11:51:05;24.10;5.00
10245;DHT22;5167;52.164;10.530;2023-07-20T11:53:31;24.20;5.00
10245;DHT22;5167;52.164;10.530;2023-07-20T11:55:58;24.30;5.00
10245;DHT22;5167;52.164;10.530;2023-07-20T11:58:24;24.30;5.00
10245;DHT22;5167;52.164;10.530;2023-07-20T12:00:50;24.40;5.00
10245;DHT22;5167;52.164;10.530;2023-07-20T12:03:15;24.50;5.00
10245;DHT22;5167;52.164;10.530;2023-07-20T12:05:41;24.50;5.00
10245;DHT22;5167;52.164;10.530;2023-07-20T12:08:07;24.50;5.00
10245;DHT22;5167;52.164;10.530;2023-07-20T12:10:32;24.60;5.00
10245;DHT22;5167;52.164;10.530;2023-07-20T12:13:02;24.70;5.00
10245;DHT22;5167;52.164;10.530;2023-07-20T12:15:30;24.70;5.00
10245;DHT22;5167;52.164;10.530;2023-07-20T12:18:01;24.80;5.00
10245;DHT22;5167;52.164;10.530;2023-07-20T12:20:35;24.80;5.00
10245;DHT22;5167;52.164;10.530;2023-07-20T12:28:19;25.00;5.00
10245;DHT22;5167;52.164;10.530;2023-07-20T12:30:45;25.00;5.00
10245;DHT22;5167;52.164;10.530;2023-07-20T12:33:12;25.20;5.00
10245;DHT22;5167;52.164;10.530;2023-07-20T12:35:41;25.20;5.00
10245;DHT22;5167;52.164;10.530;2023-07-20T12:38:08;25.20;5.00
10245;DHT22;5167;52.164;10.530;2023-07-20T12:40:34;25.20;5.00
10245;DHT22;5167;52.164;10.530;2023-07-20T12:42:59;25.20;5.00
10245;DHT22;5167;52.164;10.530;2023-07-20T12:45:25;25.30;5.00
10245;DHT22;5167;52.164;10.530;2023-07-20T12:47:50;25.40;5.00
10245;DHT22;5167;52.164;10.530;2023-07-20T12:50:16;25.50;5.00
10245;DHT22;5167;52.164;10.530;2023-07-20T12:52:41;25.40;5.00
10245;DHT22;5167;52.164;10.530;2023-07-20T12:55:08;25.40;5.00
10245;DHT22;5167;52.164;10.530;2023-07-20T12:57:35;25.50;5.00
10245;DHT22;5167;52.164;10.530;2023-07-20T13:00:06;25.50;5.00
10245;DHT22;5167;52.164;10.530;2023-07-20T13:02:33;25.60;5.00
10245;DHT22;5167;52.164;10.530;2023-07-20T13:04:59;25.60;5.00
10245;DHT22;5167;52.164;10.530;2023-07-20T13:07:35;25.70;5.00
10245;DHT22;5167;52.164;10.530;2023-07-20T13:10:03;25.60;5.00
10245;DHT22;5167;52.164;10.530;2023-07-20T13:12:31;25.70;5.00
10245;DHT22;5167;52.164;10.530;2023-07-20T13:14:57;25.70;5.00
10245;DHT22;5167;52.164;10.530;2023-07-20T13:17:28;25.70;5.00
10245;DHT22;5167;52.164;10.530;2023-07-20T13:19:55;25.70;5.00
10245;DHT22;5167;52.164;10.530;2023-07-20T13:22:20;25.70;5.00
10245;DHT22;5167;52.164;10.530;2023-07-20T13:24:46;25.70;5.00
10245;DHT22;5167;52.164;10.530;2023-07-20T13:27:15;25.80;5.00
10245;DHT22;5167;52.164;10.530;2023-07-20T13:29:40;25.70;5.00
10245;DHT22;5167;52.164;10.530;2023-07-20T13:32:07;25.80;5.00
10245;DHT22;5167;52.164;10.530;2023-07-20T13:34:33;25.70;5.00
10245;DHT22;5167;52.164;10.530;2023-07-20T13:36:59;25.80;5.00
10245;DHT22;5167;52.164;10.530;2023-07-20T13:39:25;25.80;5.00
10245;DHT22;5167;52.164;10.530;2023-07-20T13:41:52;25.80;5.00
10245;DHT22;5167;52.164;10.530;2023-07-20T13:44:18;25.80;5.00
10245;DHT22;5167;52.164;10.530;2023-07-20T13:46:46;25.70;5.00
10245;DHT22;5167;52.164;10.530;2023-07-20T13:49:11;25.80;5.00
10245;DHT22;5167;52.164;10.530;2023-07-20T13:51:37;25.80;5.00
10245;DHT22;5167;52.164;10.530;2023-07-20T13:54:02;25.70;5.00
10245;DHT22;5167;52.164;10.530;2023-07-20T13:56:28;25.70;5.00
10245;DHT22;5167;52.164;10.530;2023-07-20T13:58:53;25.70;5.00
10245;DHT22;5167;52.164;10.530;2023-07-20T14:01:19;25.60;5.00
10245;DHT22;5167;52.164;10.530;2023-07-20T14:03:45;25.60;5.00
10245;DHT22;5167;52.164;10.530;2023-07-20T14:06:10;25.60;5.00
10245;DHT22;5167;52.164;10.530;2023-07-20T14:08:38;25.60;5.00
10245;DHT22;5167;52.164;10.530;2023-07-20T14:11:04;25.50;5.00
10245;DHT22;5167;52.164;10.530;2023-07-20T14:13:29;25.40;5.00
10245;DHT22;5167;52.164;10.530;2023-07-20T14:15:55;25.30;5.00
10245;DHT22;5167;52.164;10.530;2023-07-20T14:18:20;25.20;5.00
10245;DHT22;5167;52.164;10.530;2023-07-20T14:20:46;25.10;5.00
10245;DHT22;5167;52.164;10.530;2023-07-20T14:23:11;25.10;5.00
10245;DHT22;5167;52.164;10.530;2023-07-20T14:25:37;25.10;5.00
10245;DHT22;5167;52.164;10.530;2023-07-20T14:28:02;25.00;5.00
10245;DHT22;5167;52.164;10.530;2023-07-20T14:30:28;25.00;5.00
10245;DHT22;5167;52.164;10.530;2023-07-20T14:32:53;25.00;5.00
10245;DHT22;5167;52.164;10.530;2023-07-20T14:35:19;25.00;5.00
10245;DHT22;5167;52.164;10.530;2023-07-20T14:37:45;24.90;5.00
10245;DHT22;5167;52.164;10.530;2023-07-20T14:40:12;24.90;5.00
10245;DHT22;5167;52.164;10.530;2023-07-20T14:42:38;24.90;5.00
10245;DHT22;5167;52.164;10.530;2023-07-20T14:45:04;24.90;5.00
10245;DHT22;5167;52.164;10.530;2023-07-20T14:47:31;24.90;5.00
10245;DHT22;5167;52.164;10.530;2023-07-20T14:50:03;24.80;5.00
10245;DHT22;5167;52.164;10.530;2023-07-20T14:52:28;24.80;5.00
10245;DHT22;5167;52.164;10.530;2023-07-20T14:54:54;24.80;5.00
10245;DHT22;5167;52.164;10.530;2023-07-20T14:57:20;24.70;5.00
10245;DHT22;5167;52.164;10.530;2023-07-20T14:59:48;24.70;5.00
10245;DHT22;5167;52.164;10.530;2023-07-20T15:02:14;24.60;5.00
10245;DHT22;5167;52.164;10.530;2023-07-20T15:04:49;24.60;5.00
10245;DHT22;5167;52.164;10.530;2023-07-20T15:07:17;24.50;5.00
10245;DHT22;5167;52.164;10.530;2023-07-20T15:09:43;24.50;5.00
10245;DHT22;5167;52.164;10.530;2023-07-20T15:12:09;24.50;5.00
10245;DHT22;5167;52.164;10.530;2023-07-20T15:14:35;24.40;5.00
10245;DHT22;5167;52.164;10.530;2023-07-20T15:17:00;24.40;5.00
10245;DHT22;5167;52.164;10.530;2023-07-20T15:19:26;24.40;5.00
10245;DHT22;5167;52.164;10.530;2023-07-20T15:21:51;24.40;5.00
10245;DHT22;5167;52.164;10.530;2023-07-20T15:24:17;24.30;5.00
10245;DHT22;5167;52.164;10.530;2023-07-20T15:26:42;24.40;5.00
10245;DHT22;5167;52.164;10.530;2023-07-20T15:29:08;24.40;5.00
10245;DHT22;5167;52.164;10.530;2023-07-20T15:31:33;24.40;5.00
10245;DHT22;5167;52.164;10.530;2023-07-20T15:33:59;24.40;5.00
10245;DHT22;5167;52.164;10.530;2023-07-20T15:36:24;24.40;5.00
10245;DHT22;5167;52.164;10.530;2023-07-20T15:38:50;24.40;5.00
10245;DHT22;5167;52.164;10.530;2023-07-20T15:41:15;24.40;5.00
10245;DHT22;5167;52.164;10.530;2023-07-20T15:43:42;24.50;5.00
10245;DHT22;5167;52.164;10.530;2023-07-20T15:48:46;24.40;5.00
10245;DHT22;5167;52.164;10.530;2023-07-20T15:51:11;24.40;5.00
10245;DHT22;5167;52.164;10.530;2023-07-20T15:53:37;24.40;5.00
10245;DHT22;5167;52.164;10.530;2023-07-20T15:56:03;24.40;5.00
10245;DHT22;5167;52.164;10.530;2023-07-20T15:58:29;24.40;5.00
10245;DHT22;5167;52.164;10.530;2023-07-20T16:00:55;24.40;5.00